Time;durP1;ratioP1;P1;durP2;ratioP2;P2;SDS_P1;SDS_P2;PMS_P1;PMS_P2;Temp;Humidity;BMP_temperature;BMP_pressure;BME280_temperature;BME280_humidity;BME280_pressure;Samples;Min_cycle;Max_cycle;Signal;HPM_P1;HPM_P2
2022/09/22 00:00:29;;;;;;;;;;;;;;;11.76;61.62;102024.28;5075904;28;19917;-73
2022/09/22 00:02:58;;;;;;;;;;;;;;;11.68;61.92;102034.72;5063913;28;19920;-73
2022/09/22 00:05:23;;;;;;;;;;;;;;;11.70;61.93;102035.59;5067394;28;20003;-74
2022/09/22 00:07:49;;;;;;;;;;;;;;;11.75;61.80;102035.56;5070674;28;20062;-73
2022/09/22 00:10:14;;;;;;;;;;;;;;;11.69;61.69;102036.47;5064526;28;19932;-73
2022/09/22 00:12:39;;;;;;;;;;;;;;;11.77;61.39;102026.03;5064360;28;20385;-73
2022/09/22 00:15:08;;;;;;;;;;;;;;;11.67;61.53;102042.56;5077636;28;20018;-76
2022/09/22 00:17:33;;;;;;;;;;;;;;;11.68;61.61;102026.91;5052819;28;19929;-77
2022/09/22 00:19:59;;;;;;;;;;;;;;;11.58;61.34;102035.66;5075237;28;19943;-76
2022/09/22 00:22:24;;;;;;;;;;;;;;;11.59;61.54;102034.81;5050554;28;19920;-76
2022/09/22 00:24:50;;;;;;;;;;;;;;;11.59;61.62;102041.75;5052861;28;19961;-76
2022/09/22 00:27:15;;;;;;;;;;;;;;;11.47;61.56;102043.50;5068671;28;19955;-77
2022/09/22 00:29:41;;;;;;;;;;;;;;;11.49;61.85;102033.97;5068920;28;19996;-76
2022/09/22 00:32:06;;;;;;;;;;;;;;;11.60;61.86;102036.50;5069193;28;19920;-76
2022/09/22 00:34:31;;;;;;;;;;;;;;;11.64;61.66;102035.63;5074547;28;19974;-77
2022/09/22 00:36:57;;;;;;;;;;;;;;;11.56;61.72;102033.06;5067612;28;19921;-76
2022/09/22 00:39:22;;;;;;;;;;;;;;;11.49;61.67;102033.97;5070456;28;20556;-76
2022/09/22 00:41:49;;;;;;;;;;;;;;;11.54;61.54;102032.22;5065050;28;19975;-77
2022/09/22 00:44:20;;;;;;;;;;;;;;;11.47;60.75;102035.69;5067143;28;19999;-77
2022/09/22 00:47:09;;;;;;;;;;;;;;;11.48;60.79;102034.84;5060047;28;19970;-77
2022/09/22 00:49:34;;;;;;;;;;;;;;;11.39;61.36;102034.00;5057183;28;19980;-76
2022/09/22 00:52:00;;;;;;;;;;;;;;;11.29;61.46;102030.59;5072056;28;20007;-76
2022/09/22 00:54:25;;;;;;;;;;;;;;;11.30;61.36;102024.50;5051953;28;19913;-77
2022/09/22 00:56:54;;;;;;;;;;;;;;;11.39;61.32;102031.41;5057004;28;19921;-77
2022/09/22 00:59:21;;;;;;;;;;;;;;;11.32;61.44;102019.31;5070126;28;20335;-77
2022/09/22 01:01:46;;;;;;;;;;;;;;;11.35;61.50;102027.97;5066656;28;19928;-76
2022/09/22 01:04:11;;;;;;;;;;;;;;;11.36;60.92;102021.88;5052311;28;19965;-77
2022/09/22 01:06:38;;;;;;;;;;;;;;;11.19;61.53;102020.19;5068987;28;19920;-77
2022/09/22 01:09:04;;;;;;;;;;;;;;;11.28;62.03;102018.47;5077473;28;20416;-76
2022/09/22 01:11:29;;;;;;;;;;;;;;;11.36;61.78;102008.88;5052330;28;19924;-76
2022/09/22 01:14:02;;;;;;;;;;;;;;;11.45;62.05;102010.56;5074427;28;20477;-77
2022/09/22 01:16:39;;;;;;;;;;;;;;;11.31;61.67;102008.03;5070708;28;20015;-76
2022/09/22 01:19:21;;;;;;;;;;;;;;;11.25;61.81;102002.81;5073769;28;19943;-76
2022/09/22 01:21:56;;;;;;;;;;;;;;;11.28;62.09;102010.66;5070967;28;19921;-76
2022/09/22 01:24:33;;;;;;;;;;;;;;;11.36;61.29;102008.88;5051561;28;19931;-76
2022/09/22 01:27:17;;;;;;;;;;;;;;;11.38;61.53;102001.91;5069880;28;19920;-76
2022/09/22 01:29:43;;;;;;;;;;;;;;;11.23;62.32;102003.72;5044545;28;19921;-77
2022/09/22 01:32:20;;;;;;;;;;;;;;;11.24;61.96;102006.28;5074798;28;20573;-77
2022/09/22 01:35:03;;;;;;;;;;;;;;;11.35;61.84;102001.09;5073538;28;19978;-76
2022/09/22 01:37:43;;;;;;;;;;;;;;;11.33;61.55;101998.47;5065358;28;19947;-76
2022/09/22 01:40:13;;;;;;;;;;;;;;;11.23;61.44;101994.19;5075650;28;19920;-77
2022/09/22 01:42:38;;;;;;;;;;;;;;;11.22;61.53;101995.03;5081206;28;19926;-77
2022/09/22 01:45:07;;;;;;;;;;;;;;;11.09;61.92;101990.75;5072546;28;19925;-77
2022/09/22 01:47:48;;;;;;;;;;;;;;;11.07;62.08;101986.41;5067551;28;19924;-77
2022/09/22 01:50:17;;;;;;;;;;;;;;;11.20;61.90;101994.19;5042554;28;20043;-77
2022/09/22 01:52:43;;;;;;;;;;;;;;;11.13;62.34;101995.06;5073121;28;19932;-77
2022/09/22 01:55:15;;;;;;;;;;;;;;;11.19;62.03;101992.44;5071770;28;19916;-77
2022/09/22 01:57:49;;;;;;;;;;;;;;;11.17;62.76;101998.53;5073969;28;19920;-77
2022/09/22 02:00:18;;;;;;;;;;;;;;;11.13;62.63;101997.66;5069380;28;20344;-77
2022/09/22 02:02:51;;;;;;;;;;;;;;;11.13;62.37;101995.06;5071566;28;19931;-77
2022/09/22 02:05:24;;;;;;;;;;;;;;;11.21;62.30;101990.69;5072665;28;19920;-77
2022/09/22 02:07:52;;;;;;;;;;;;;;;11.26;62.69;101993.28;5070216;28;19926;-77
2022/09/22 02:10:21;;;;;;;;;;;;;;;11.27;62.67;101993.28;5075231;28;19927;-77
2022/09/22 02:12:48;;;;;;;;;;;;;;;11.25;61.90;101994.16;5074082;28;19949;-77
2022/09/22 02:18:01;;;;;;;;;;;;;;;11.20;61.77;101990.72;5072571;28;19931;-76
2022/09/22 02:20:27;;;;;;;;;;;;;;;11.13;62.09;101989.00;5068300;28;19920;-76
2022/09/22 02:22:53;;;;;;;;;;;;;;;11.13;62.25;101979.47;5077440;28;20305;-77
2022/09/22 02:25:19;;;;;;;;;;;;;;;11.15;62.38;101982.91;5076236;28;19920;-76
2022/09/22 02:27:46;;;;;;;;;;;;;;;11.12;61.80;101979.50;5076691;28;19924;-77
2022/09/22 02:30:12;;;;;;;;;;;;;;;11.01;61.76;101985.59;5082511;28;20015;-77
2022/09/22 02:32:40;;;;;;;;;;;;;;;11.03;61.83;101977.75;5079938;28;19952;-77
2022/09/22 02:35:06;;;;;;;;;;;;;;;11.10;61.69;101976.88;5052610;28;19920;-77
2022/09/22 02:37:43;;;;;;;;;;;;;;;11.16;62.19;101975.97;5080624;28;20007;-77
2022/09/22 02:40:12;;;;;;;;;;;;;;;11.16;61.42;101973.38;5071615;28;19984;-76
2022/09/22 02:42:40;;;;;;;;;;;;;;;11.13;61.65;101974.28;5082759;28;19919;-76
2022/09/22 02:45:08;;;;;;;;;;;;;;;11.16;62.17;101969.06;5077749;28;19928;-77
2022/09/22 02:47:37;;;;;;;;;;;;;;;11.10;61.17;101960.41;5071064;28;20334;-76
2022/09/22 02:50:04;;;;;;;;;;;;;;;11.15;61.43;101959.50;5055309;28;20016;-77
2022/09/22 02:52:29;;;;;;;;;;;;;;;11.09;61.78;101958.69;5066475;28;19927;-77
2022/09/22 02:54:55;;;;;;;;;;;;;;;11.07;61.50;101950.88;5070792;28;19916;-77
2022/09/22 02:57:20;;;;;;;;;;;;;;;11.04;61.48;101950.91;5066788;28;19928;-76
2022/09/22 02:59:46;;;;;;;;;;;;;;;11.12;61.93;101956.09;5073974;28;19970;-76
2022/09/22 03:02:11;;;;;;;;;;;;;;;11.05;61.37;101950.03;5074850;28;20382;-77
2022/09/22 03:04:36;;;;;;;;;;;;;;;11.00;61.54;101950.03;5070103;28;19920;-77
2022/09/22 03:07:02;;;;;;;;;;;;;;;10.90;61.49;101947.50;5071288;28;19944;-77
2022/09/22 03:09:27;;;;;;;;;;;;;;;10.86;61.54;101941.44;5060226;28;20014;-75
2022/09/22 03:11:52;;;;;;;;;;;;;;;10.86;61.40;101944.03;5061348;28;19954;-74
2022/09/22 03:14:18;;;;;;;;;;;;;;;10.92;60.91;101944.00;5083576;28;19965;-74
2022/09/22 03:16:43;;;;;;;;;;;;;;;10.93;61.67;101942.28;5077613;28;19921;-75
2022/09/22 03:19:08;;;;;;;;;;;;;;;10.86;61.94;101943.16;5065868;28;19964;-75
2022/09/22 03:21:33;;;;;;;;;;;;;;;10.62;62.04;101944.09;5072626;28;19920;-74
2022/09/22 03:23:59;;;;;;;;;;;;;;;10.80;61.23;101932.78;5062723;28;19978;-74
2022/09/22 03:26:24;;;;;;;;;;;;;;;10.89;61.76;101940.56;5052362;28;19926;-74
2022/09/22 03:28:49;;;;;;;;;;;;;;;10.81;61.59;101938.00;5048551;28;19928;-74
2022/09/22 03:31:15;;;;;;;;;;;;;;;10.91;61.97;101937.06;5048054;28;20011;-74
2022/09/22 03:33:40;;;;;;;;;;;;;;;10.87;61.85;101940.56;5055416;28;19920;-75
2022/09/22 03:36:05;;;;;;;;;;;;;;;10.92;61.78;101935.34;5046736;28;20157;-75
2022/09/22 03:38:31;;;;;;;;;;;;;;;10.97;61.50;101930.97;5059969;28;19948;-75
2022/09/22 03:40:57;;;;;;;;;;;;;;;10.76;61.34;101926.72;5070195;28;19928;-75
2022/09/22 03:43:23;;;;;;;;;;;;;;;10.89;62.45;101923.22;5076281;28;19942;-74
2022/09/22 03:45:54;;;;;;;;;;;;;;;10.83;61.81;101918.06;5067689;28;19999;-75
2022/09/22 03:48:19;;;;;;;;;;;;;;;10.80;62.52;101931.06;5068135;28;19916;-74
2022/09/22 03:50:45;;;;;;;;;;;;;;;10.89;61.93;101928.44;5073322;28;19924;-74
2022/09/22 03:53:10;;;;;;;;;;;;;;;10.85;62.65;101929.28;5078094;28;19924;-74
2022/09/22 03:55:35;;;;;;;;;;;;;;;10.77;63.05;101933.66;5079253;28;20352;-74
2022/09/22 03:58:00;;;;;;;;;;;;;;;10.77;62.65;101933.66;5075968;28;19925;-74
2022/09/22 04:00:27;;;;;;;;;;;;;;;10.68;62.59;101933.69;5068516;28;19912;-74
2022/09/22 04:02:52;;;;;;;;;;;;;;;10.73;62.24;101931.94;5048078;28;19972;-74
2022/09/22 04:05:17;;;;;;;;;;;;;;;10.90;62.07;101930.16;5067710;28;19967;-74
2022/09/22 04:07:43;;;;;;;;;;;;;;;10.78;62.33;101929.34;5078179;28;19920;-74
2022/09/22 04:10:08;;;;;;;;;;;;;;;10.83;62.04;101923.25;5092397;28;19969;-74
2022/09/22 04:12:33;;;;;;;;;;;;;;;10.82;62.29;101929.31;5091912;28;19920;-75
2022/09/22 04:14:59;;;;;;;;;;;;;;;10.81;62.64;101925.00;5079087;28;19951;-74
2022/09/22 04:17:24;;;;;;;;;;;;;;;10.85;62.26;101924.09;5089348;28;19958;-74
2022/09/22 04:19:50;;;;;;;;;;;;;;;10.76;62.80;101924.13;5087555;28;19920;-74
2022/09/22 04:22:15;;;;;;;;;;;;;;;10.80;62.46;101919.78;5082048;28;19924;-74
2022/09/22 04:24:40;;;;;;;;;;;;;;;10.74;62.43;101925.88;5093704;28;19923;-74
2022/09/22 04:27:05;;;;;;;;;;;;;;;10.76;62.36;101920.69;5095932;28;19943;-74
2022/09/22 04:29:31;;;;;;;;;;;;;;;10.87;62.69;101921.50;5085365;28;19977;-74
2022/09/22 04:31:56;;;;;;;;;;;;;;;10.77;62.59;101920.66;5092634;28;19924;-74
2022/09/22 04:34:21;;;;;;;;;;;;;;;10.67;62.44;101921.56;5090230;28;20437;-75
2022/09/22 04:36:46;;;;;;;;;;;;;;;10.58;63.67;101925.94;5098107;28;20365;-76
2022/09/22 04:39:12;;;;;;;;;;;;;;;10.64;63.12;101925.94;5089181;28;19917;-77
2022/09/22 04:41:37;;;;;;;;;;;;;;;10.69;62.88;101929.38;5088986;28;20122;-76
2022/09/22 04:44:03;;;;;;;;;;;;;;;10.68;62.79;101925.03;5071337;28;20387;-77
2022/09/22 04:46:28;;;;;;;;;;;;;;;10.79;62.56;101921.53;5088510;28;20356;-77
2022/09/22 04:48:53;;;;;;;;;;;;;;;10.72;62.63;101927.63;5094237;28;20007;-76
2022/09/22 04:51:18;;;;;;;;;;;;;;;10.68;62.38;101925.03;5094228;28;19916;-77
2022/09/22 04:53:44;;;;;;;;;;;;;;;10.78;61.93;101918.94;5085388;28;19920;-76
2022/09/22 04:56:09;;;;;;;;;;;;;;;10.68;62.11;101917.22;5091066;28;20035;-76
2022/09/22 04:58:34;;;;;;;;;;;;;;;10.75;62.45;101922.41;5070193;28;20355;-77
2022/09/22 05:01:00;;;;;;;;;;;;;;;10.87;61.48;101918.91;5096401;28;19920;-76
2022/09/22 05:03:26;;;;;;;;;;;;;;;10.62;62.84;101925.91;5086778;28;19919;-76
2022/09/22 05:05:51;;;;;;;;;;;;;;;10.62;62.57;101925.91;5083717;28;20015;-77
2022/09/22 05:08:16;;;;;;;;;;;;;;;10.53;62.67;101912.94;5085476;28;19920;-76
2022/09/22 05:10:41;;;;;;;;;;;;;;;10.61;62.37;101918.13;5088497;28;19924;-76
2022/09/22 05:13:07;;;;;;;;;;;;;;;10.54;63.04;101929.41;5086050;28;19927;-77
2022/09/22 05:15:33;;;;;;;;;;;;;;;10.54;62.66;101927.69;5072236;28;20360;-77
2022/09/22 05:17:58;;;;;;;;;;;;;;;10.64;62.26;101928.53;5094823;28;20356;-76
2022/09/22 05:20:24;;;;;;;;;;;;;;;10.53;62.77;101930.25;5092570;28;19962;-77
2022/09/22 05:22:49;;;;;;;;;;;;;;;10.67;62.35;101928.53;5083197;28;19981;-76
2022/09/22 05:25:16;;;;;;;;;;;;;;;10.58;61.74;101929.41;5094557;28;20293;-76
2022/09/22 05:27:43;;;;;;;;;;;;;;;10.54;62.39;101929.41;5090607;28;19993;-76
2022/09/22 05:30:08;;;;;;;;;;;;;;;10.56;62.35;101938.06;5092064;28;19969;-77
2022/09/22 05:32:34;;;;;;;;;;;;;;;10.59;61.83;101938.03;5093593;28;19994;-76
2022/09/22 05:34:59;;;;;;;;;;;;;;;10.63;62.04;101935.44;5078788;28;20504;-76
2022/09/22 05:37:24;;;;;;;;;;;;;;;10.54;61.84;101932.00;5070431;28;20015;-76
2022/09/22 05:39:49;;;;;;;;;;;;;;;10.53;62.13;101935.47;5092382;28;20508;-76
2022/09/22 05:42:15;;;;;;;;;;;;;;;10.44;62.38;101938.94;5072445;28;19912;-77
2022/09/22 05:44:40;;;;;;;;;;;;;;;10.55;62.38;101941.53;5088796;28;19926;-76
2022/09/22 05:47:05;;;;;;;;;;;;;;;10.56;63.04;101951.03;5053503;28;19995;-76
2022/09/22 05:49:30;;;;;;;;;;;;;;;10.61;62.12;101944.13;5089138;28;19931;-76
2022/09/22 05:51:56;;;;;;;;;;;;;;;10.58;62.56;101942.41;5093389;28;19916;-76
2022/09/22 05:54:21;;;;;;;;;;;;;;;10.54;62.91;101939.78;5099428;28;20304;-76
2022/09/22 05:56:47;;;;;;;;;;;;;;;10.57;63.14;101937.19;5094160;28;20471;-77
2022/09/22 05:59:12;;;;;;;;;;;;;;;10.54;63.21;101942.41;5077640;28;20384;-78
2022/09/22 06:01:38;;;;;;;;;;;;;;;10.65;63.16;101941.50;5083948;28;19920;-77
2022/09/22 06:04:03;;;;;;;;;;;;;;;10.61;63.12;101942.38;5092008;28;20036;-77
2022/09/22 06:06:29;;;;;;;;;;;;;;;10.56;63.43;101945.84;5096556;28;20584;-76
2022/09/22 06:08:54;;;;;;;;;;;;;;;10.69;63.48;101943.22;5071816;28;19928;-77
2022/09/22 06:11:19;;;;;;;;;;;;;;;10.70;62.91;101942.34;5073699;28;19920;-77
2022/09/22 06:13:49;;;;;;;;;;;;;;;10.73;63.95;101955.31;5079698;28;19973;-76
2022/09/22 06:16:21;;;;;;;;;;;;;;;10.75;63.78;101950.13;5083843;28;20410;-77
2022/09/22 06:18:47;;;;;;;;;;;;;;;10.69;63.85;101947.56;5072539;28;19960;-78
2022/09/22 06:21:16;;;;;;;;;;;;;;;10.72;64.47;101947.56;5073924;28;19951;-77
2022/09/22 06:23:44;;;;;;;;;;;;;;;10.83;64.46;101946.66;5094017;28;19926;-76
2022/09/22 06:26:12;;;;;;;;;;;;;;;10.86;63.94;101944.03;5090924;28;20011;-77
2022/09/22 06:28:38;;;;;;;;;;;;;;;10.82;65.16;101944.91;5089916;28;20369;-77
2022/09/22 06:31:03;;;;;;;;;;;;;;;10.95;64.69;101944.00;5091632;28;19956;-77
2022/09/22 06:33:28;;;;;;;;;;;;;;;10.85;64.29;101934.50;5089650;28;20002;-76
2022/09/22 06:35:55;;;;;;;;;;;;;;;10.96;64.33;101939.66;5098666;28;19920;-76
2022/09/22 06:38:21;;;;;;;;;;;;;;;10.85;65.02;101937.09;5082117;28;19931;-76
2022/09/22 06:40:46;;;;;;;;;;;;;;;11.02;64.21;101940.53;5086748;28;19920;-77
2022/09/22 06:43:21;;;;;;;;;;;;;;;11.00;64.49;101939.63;5096207;28;19928;-76
2022/09/22 06:45:47;;;;;;;;;;;;;;;11.11;64.97;101941.34;5086346;28;19920;-76
2022/09/22 06:48:12;;;;;;;;;;;;;;;11.12;65.09;101943.09;5094360;28;19930;-76
2022/09/22 06:50:39;;;;;;;;;;;;;;;11.05;65.22;101943.97;5095785;28;20380;-76
2022/09/22 06:53:07;;;;;;;;;;;;;;;11.13;64.82;101934.38;5072927;28;19920;-76
2022/09/22 06:55:33;;;;;;;;;;;;;;;11.10;65.23;101940.47;5073230;28;20338;-76
2022/09/22 06:57:59;;;;;;;;;;;;;;;11.07;64.82;101942.22;5085758;28;20587;-76
2022/09/22 07:00:29;;;;;;;;;;;;;;;11.19;65.31;101939.56;5092342;28;19980;-76
2022/09/22 07:03:03;;;;;;;;;;;;;;;11.19;65.27;101944.75;5093796;28;20087;-76
2022/09/22 07:05:29;;;;;;;;;;;;;;;11.29;64.74;101946.50;5070508;28;19925;-75
2022/09/22 07:07:54;;;;;;;;;;;;;;;11.12;65.41;101945.69;5070513;28;19927;-76
2022/09/22 07:10:19;;;;;;;;;;;;;;;11.23;65.66;101946.50;5075571;28;19964;-76
2022/09/22 07:12:45;;;;;;;;;;;;;;;11.29;64.94;101949.09;5093266;28;19920;-76
2022/09/22 07:15:11;;;;;;;;;;;;;;;11.25;65.77;101944.72;5094149;28;19963;-76
2022/09/22 07:17:36;;;;;;;;;;;;;;;11.33;65.43;101942.97;5059505;28;19958;-76
2022/09/22 07:20:04;;;;;;;;;;;;;;;11.30;65.14;101940.41;5093609;28;20369;-75
2022/09/22 07:22:29;;;;;;;;;;;;;;;11.25;65.64;101942.13;5098866;28;19923;-76
2022/09/22 07:24:54;;;;;;;;;;;;;;;11.37;65.31;101939.50;5092690;28;20372;-76
2022/09/22 07:27:24;;;;;;;;;;;;;;;11.49;65.38;101937.69;5105326;28;20009;-76
2022/09/22 07:29:51;;;;;;;;;;;;;;;11.47;64.73;101942.03;5095811;28;19931;-76
2022/09/22 07:32:16;;;;;;;;;;;;;;;11.50;65.40;101942.00;5094114;28;20026;-76
2022/09/22 07:34:41;;;;;;;;;;;;;;;11.43;64.74;101939.47;5088750;28;20046;-76
2022/09/22 07:37:10;;;;;;;;;;;;;;;11.59;64.62;101942.84;5093419;28;19915;-76
2022/09/22 07:39:35;;;;;;;;;;;;;;;11.58;65.71;101947.19;5069328;28;19920;-76
2022/09/22 07:42:00;;;;;;;;;;;;;;;11.52;64.81;101932.47;5086977;28;19935;-76
2022/09/22 07:47:09;;;;;;;;;;;;;;;11.67;64.78;101938.44;5097590;28;19931;-76
2022/09/22 07:49:35;;;;;;;;;;;;;;;11.66;65.15;101939.31;5084691;28;19916;-76
2022/09/22 07:52:00;;;;;;;;;;;;;;;11.72;65.13;101937.53;5084536;28;20282;-76
2022/09/22 07:54:26;;;;;;;;;;;;;;;11.77;65.14;101930.53;5071123;28;19920;-76
2022/09/22 07:56:54;;;;;;;;;;;;;;;11.71;65.75;101932.34;5083649;28;19924;-75
2022/09/22 07:59:20;;;;;;;;;;;;;;;11.78;65.76;101934.03;5085797;28;19916;-76
2022/09/22 08:01:46;;;;;;;;;;;;;;;11.88;64.79;101931.34;5088593;28;19920;-76
2022/09/22 08:04:17;;;;;;;;;;;;;;;11.89;65.25;101927.84;5088066;28;19924;-76
2022/09/22 08:06:43;;;;;;;;;;;;;;;11.94;65.20;101933.03;5085121;28;20380;-76
2022/09/22 08:09:09;;;;;;;;;;;;;;;12.00;64.86;101930.38;5091415;28;19920;-76
2022/09/22 08:11:34;;;;;;;;;;;;;;;12.06;65.24;101932.94;5075552;28;19955;-76
2022/09/22 08:14:01;;;;;;;;;;;;;;;11.97;66.02;101936.50;5089660;28;19932;-76
2022/09/22 08:16:31;;;;;;;;;;;;;;;12.05;65.50;101931.19;5077206;28;19916;-76
2022/09/22 08:18:57;;;;;;;;;;;;;;;12.02;66.59;101937.31;5089410;28;19978;-76
2022/09/22 08:21:23;;;;;;;;;;;;;;;11.99;66.15;101926.91;5082216;28;19923;-76
2022/09/22 08:23:52;;;;;;;;;;;;;;;12.16;63.83;101918.06;5098219;28;20380;-76
2022/09/22 08:26:18;;;;;;;;;;;;;;;12.17;63.04;101915.47;5077160;28;20018;-76
2022/09/22 08:28:43;;;;;;;;;;;;;;;12.21;63.81;101916.31;5054405;28;19920;-76
2022/09/22 08:31:13;;;;;;;;;;;;;;;12.33;62.14;101918.78;5103894;28;19912;-76
2022/09/22 08:33:39;;;;;;;;;;;;;;;12.35;62.30;101923.09;5078515;28;19916;-76
2022/09/22 08:36:05;;;;;;;;;;;;;;;12.31;63.58;101917.94;5087487;28;19928;-76
2022/09/22 08:38:32;;;;;;;;;;;;;;;12.37;62.69;101916.13;5076164;28;19932;-76
2022/09/22 08:41:00;;;;;;;;;;;;;;;12.39;62.46;101911.78;5078699;28;19930;-75
2022/09/22 08:43:30;;;;;;;;;;;;;;;12.38;63.51;101915.25;5096212;28;20609;-76
2022/09/22 08:45:55;;;;;;;;;;;;;;;12.46;62.57;101910.81;5088673;28;19916;-76
2022/09/22 08:53:56;;;;;;;;;;;;;;;12.59;60.48;101914.19;5096666;28;19934;-76
2022/09/22 08:56:31;;;;;;;;;;;;;;;12.59;61.44;101916.81;5099228;28;20019;-76
2022/09/22 08:59:02;;;;;;;;;;;;;;;12.64;61.24;101915.00;5098768;28;19949;-76
2022/09/22 09:01:35;;;;;;;;;;;;;;;12.65;60.78;101912.41;5092382;28;19920;-76
2022/09/22 09:04:10;;;;;;;;;;;;;;;12.71;60.44;101911.47;5098817;28;19981;-76
2022/09/22 09:06:41;;;;;;;;;;;;;;;12.77;60.81;101915.72;5089871;28;19920;-76
2022/09/22 09:09:27;;;;;;;;;;;;;;;12.84;59.56;101912.19;5088694;28;19923;-76
2022/09/22 09:12:10;;;;;;;;;;;;;;;12.86;58.26;101911.28;5048895;28;19928;-76
2022/09/22 09:14:38;;;;;;;;;;;;;;;12.89;62.96;101918.19;5099434;28;19915;-75
2022/09/22 09:17:08;;;;;;;;;;;;;;;12.89;60.10;101912.97;5095929;28;19919;-76
2022/09/22 09:19:39;;;;;;;;;;;;;;;12.89;58.75;101911.25;5090166;28;19924;-76
2022/09/22 09:22:09;;;;;;;;;;;;;;;12.95;58.33;101908.56;5089988;28;19962;-76
2022/09/22 09:24:37;;;;;;;;;;;;;;;12.98;58.64;101911.13;5094622;28;19947;-76
2022/09/22 09:27:07;;;;;;;;;;;;;;;13.02;57.49;101901.50;5075401;28;19924;-75
2022/09/22 09:29:36;;;;;;;;;;;;;;;13.05;58.17;101906.66;5091278;28;19920;-76
2022/09/22 09:32:05;;;;;;;;;;;;;;;13.07;57.41;101903.19;5092593;28;20337;-76
2022/09/22 09:34:31;;;;;;;;;;;;;;;13.07;58.21;101897.97;5073684;28;20376;-76
2022/09/22 09:37:05;;;;;;;;;;;;;;;13.11;57.81;101896.16;5056084;28;19931;-76
2022/09/22 09:39:35;;;;;;;;;;;;;;;13.13;58.21;101894.41;5093572;28;20376;-76
2022/09/22 09:42:01;;;;;;;;;;;;;;;13.26;59.69;101905.53;5099620;28;20624;-76
2022/09/22 09:44:26;;;;;;;;;;;;;;;13.29;55.60;101879.38;5094677;28;19943;-76
2022/09/22 09:47:11;;;;;;;;;;;;;;;13.31;56.23;101878.50;5088670;28;20372;-76
2022/09/22 09:49:36;;;;;;;;;;;;;;;13.38;58.16;101884.47;5091321;28;20035;-76
2022/09/22 09:52:05;;;;;;;;;;;;;;;13.34;56.24;101882.81;5088741;28;20383;-76
2022/09/22 09:54:31;;;;;;;;;;;;;;;13.27;55.70;101879.41;5089553;28;20002;-76
2022/09/22 09:57:08;;;;;;;;;;;;;;;13.26;55.98;101885.50;5079119;28;20470;-76
2022/09/22 10:02:21;;;;;;;;;;;;;;;13.35;57.19;101866.25;5087295;28;19935;-76
2022/09/22 10:04:51;;;;;;;;;;;;;;;13.44;57.26;101856.53;5089268;28;19948;-76
2022/09/22 10:07:20;;;;;;;;;;;;;;;13.47;56.45;101858.22;5086325;28;19965;-76
2022/09/22 10:09:47;;;;;;;;;;;;;;;13.49;56.16;101853.88;5090784;28;19931;-76
2022/09/22 10:12:24;;;;;;;;;;;;;;;13.49;57.17;101851.25;5088444;28;19985;-76
2022/09/22 10:14:51;;;;;;;;;;;;;;;13.50;57.11;101850.34;5089696;28;19995;-75
2022/09/22 10:17:27;;;;;;;;;;;;;;;13.58;56.47;101849.34;5103886;28;19932;-76
2022/09/22 10:20:12;;;;;;;;;;;;;;;13.58;55.67;101845.91;5090990;28;19928;-75
2022/09/22 10:22:37;;;;;;;;;;;;;;;13.63;55.46;101837.09;5088612;28;19916;-75
2022/09/22 10:25:03;;;;;;;;;;;;;;;13.61;55.54;101845.84;5099967;28;19916;-75
2022/09/22 10:27:29;;;;;;;;;;;;;;;13.69;56.06;101839.63;5093481;28;19924;-75
2022/09/22 10:30:11;;;;;;;;;;;;;;;13.72;57.11;101836.09;5097900;28;19919;-76
2022/09/22 10:32:40;;;;;;;;;;;;;;;13.70;56.44;101835.28;5084906;28;20042;-76
2022/09/22 10:35:32;;;;;;;;;;;;;;;13.77;55.18;101826.44;5092283;28;19923;-76
2022/09/22 10:38:08;;;;;;;;;;;;;;;13.79;54.79;101826.44;5084938;28;19924;-76
2022/09/22 10:40:34;;;;;;;;;;;;;;;13.88;54.90;101827.09;5091688;28;19927;-76
2022/09/22 10:43:00;;;;;;;;;;;;;;;13.84;52.69;101819.38;5091410;28;19920;-76
2022/09/22 10:45:46;;;;;;;;;;;;;;;13.89;51.16;101812.28;5071254;28;19920;-75
2022/09/22 10:48:20;;;;;;;;;;;;;;;13.88;52.10;101818.44;5092542;28;19928;-75
2022/09/22 10:51:03;;;;;;;;;;;;;;;13.82;54.92;101814.16;5090000;28;20018;-76
2022/09/22 10:53:29;;;;;;;;;;;;;;;13.87;55.33;101820.19;5087828;28;19927;-76
2022/09/22 10:56:04;;;;;;;;;;;;;;;13.96;51.59;101806.09;5090980;28;20400;-76
2022/09/22 10:58:29;;;;;;;;;;;;;;;13.97;51.02;101808.66;5093355;28;19920;-76
2022/09/22 11:01:06;;;;;;;;;;;;;;;13.94;52.18;101815.72;5098467;28;19981;-76
2022/09/22 11:03:31;;;;;;;;;;;;;;;13.98;52.81;101806.91;5089790;28;19927;-76
2022/09/22 11:14:48;;;;;;;;;;;;;;;14.08;52.01;101798.03;5085462;28;19927;-75
2022/09/22 11:17:16;;;;;;;;;;;;;;;14.05;50.74;101793.72;5084107;28;20379;-76
2022/09/22 11:20:15;;;;;;;;;;;;;;;14.09;52.06;101786.66;5089071;28;20388;-76
2022/09/22 11:22:43;;;;;;;;;;;;;;;14.12;54.08;101783.97;5028233;28;19920;-76
2022/09/22 11:25:29;;;;;;;;;;;;;;;14.11;52.36;101787.50;5088768;28;20510;-76
2022/09/22 11:28:13;;;;;;;;;;;;;;;14.23;48.81;101779.44;5090132;28;19919;-75
2022/09/22 11:30:49;;;;;;;;;;;;;;;14.30;55.84;101800.16;5089514;28;20419;-76
2022/09/22 11:33:30;;;;;;;;;;;;;;;14.29;47.22;101784.53;5081550;28;20404;-75
2022/09/22 11:36:14;;;;;;;;;;;;;;;14.26;51.41;101784.59;5077653;28;20398;-76
2022/09/22 11:38:42;;;;;;;;;;;;;;;14.27;51.09;101781.06;5089433;28;19934;-75
2022/09/22 11:41:17;;;;;;;;;;;;;;;14.32;53.36;101771.41;5056548;28;20369;-75
2022/09/22 11:43:45;;;;;;;;;;;;;;;14.28;51.71;101777.56;5102471;28;19920;-76
2022/09/22 11:46:29;;;;;;;;;;;;;;;14.32;52.55;101774.84;5094786;28;19908;-76
2022/09/22 11:48:57;;;;;;;;;;;;;;;14.24;48.88;101761.09;5096163;28;20396;-75
2022/09/22 11:51:31;;;;;;;;;;;;;;;14.32;49.41;101768.78;5093336;28;20384;-76
2022/09/22 11:54:16;;;;;;;;;;;;;;;14.31;50.92;101770.53;5091615;28;19920;-75
2022/09/22 11:56:42;;;;;;;;;;;;;;;14.38;51.03;101760.81;5069595;28;20069;-76
2022/09/22 11:59:10;;;;;;;;;;;;;;;14.41;50.63;101765.13;5092357;28;20318;-76
2022/09/22 12:01:39;;;;;;;;;;;;;;;14.42;51.80;101757.22;5092439;28;19922;-76
2022/09/22 12:04:12;;;;;;;;;;;;;;;14.45;54.50;101757.16;5088713;28;19993;-76
2022/09/22 12:06:40;;;;;;;;;;;;;;;14.43;51.37;101751.13;5089301;28;19951;-76
2022/09/22 12:09:24;;;;;;;;;;;;;;;14.46;54.92;101752.81;5075905;28;20341;-76
2022/09/22 12:11:50;;;;;;;;;;;;;;;14.47;56.51;101750.19;5072681;28;20407;-76
2022/09/22 12:14:16;;;;;;;;;;;;;;;14.52;57.29;101737.84;5090660;28;19969;-76
2022/09/22 12:16:46;;;;;;;;;;;;;;;14.53;50.20;101728.25;5091541;28;19928;-76
2022/09/22 12:19:17;;;;;;;;;;;;;;;14.58;57.57;101739.47;5088116;28;19928;-76
2022/09/22 12:21:55;;;;;;;;;;;;;;;14.62;56.00;101731.50;5088267;28;20022;-75
2022/09/22 12:24:21;;;;;;;;;;;;;;;14.61;48.98;101728.94;5091340;28;20388;-76
2022/09/22 12:26:47;;;;;;;;;;;;;;;14.61;53.15;101727.19;5089984;28;19921;-76
2022/09/22 12:29:13;;;;;;;;;;;;;;;14.61;50.04;101719.34;5089976;28;19920;-75
2022/09/22 12:31:39;;;;;;;;;;;;;;;14.62;50.19;101718.44;5089108;28;19916;-76
2022/09/22 12:34:13;;;;;;;;;;;;;;;14.59;47.62;101712.44;5089861;28;20380;-76
2022/09/22 12:36:39;;;;;;;;;;;;;;;14.69;58.09;101720.03;5087204;28;19928;-76
2022/09/22 12:39:06;;;;;;;;;;;;;;;14.65;51.44;101712.31;5075611;28;19920;-76
2022/09/22 12:41:31;;;;;;;;;;;;;;;14.66;46.22;101703.53;5092545;28;19916;-76
2022/09/22 12:44:05;;;;;;;;;;;;;;;14.67;51.22;101707.88;5069733;28;19931;-76
2022/09/22 12:46:31;;;;;;;;;;;;;;;14.70;47.68;101700.84;5093758;28;20021;-76
2022/09/22 12:48:56;;;;;;;;;;;;;;;14.71;51.46;101697.31;5090163;28;19912;-76
2022/09/22 12:51:25;;;;;;;;;;;;;;;14.70;51.89;101700.84;5091405;28;20523;-75
2022/09/22 12:53:50;;;;;;;;;;;;;;;14.72;51.94;101701.66;5088523;28;19923;-76
2022/09/22 12:56:34;;;;;;;;;;;;;;;14.79;56.26;101690.19;5097658;28;20296;-76
2022/09/22 12:59:00;;;;;;;;;;;;;;;14.86;63.54;101703.97;5093475;28;20432;-75
2022/09/22 13:01:27;;;;;;;;;;;;;;;14.79;52.24;101689.31;5089193;28;19920;-76
2022/09/22 13:04:01;;;;;;;;;;;;;;;14.82;58.03;101684.03;5095555;28;19924;-75